Terminal Aerodrome Forecast
Issued by NWS Cleveland, OH

Home | Current Version | Previous Version | Text Only | Print | Product List | Glossary Off
Versions: 1 2 3 4 5 6 7 8 9 10 11 12 13 14 15 16 17 18 19 20 21 22 23 24 25

343
FTUS41 KCLE 221421 AAA
TAFTOL
TAF AMD
KTOL 221421Z 2214/2312 22006KT P6SM OVC035
      TEMPO 2214/2216 5SM BR
     FM221600 22008KT P6SM OVC022
     FM222100 22008KT P6SM BKN045
     FM230400 20008KT 6SM BR OVC025
     FM230800 22010KT 3SM BR OVC009=

USA.gov is the U.S. government's official web portal to all federal, state and local government web resources and services.